sensor_id;sensor_type;location;lat;lon;timestamp;pressure;altitude;pressure_sealevel;temperature;humidity
62928;BME280;51070;52.236;-0.892;2024-03-08T00:01:05;100688.90;;;5.97;96.00
62928;BME280;51070;52.236;-0.892;2024-03-08T00:03:32;100689.35;;;5.95;96.17
62928;BME280;51070;52.236;-0.892;2024-03-08T00:05:57;100685.89;;;5.95;96.57
62928;BME280;51070;52.236;-0.892;2024-03-08T00:08:23;100684.48;;;5.94;96.87
62928;BME280;51070;52.236;-0.892;2024-03-08T00:10:48;100679.02;;;5.95;97.30
62928;BME280;51070;52.236;-0.892;2024-03-08T00:13:14;100676.98;;;5.95;97.46
62928;BME280;51070;52.236;-0.892;2024-03-08T00:15:39;100674.43;;;5.95;97.83
62928;BME280;51070;52.236;-0.892;2024-03-08T00:18:06;100671.67;;;5.95;98.04
62928;BME280;51070;52.236;-0.892;2024-03-08T00:20:31;100670.35;;;5.96;98.24
62928;BME280;51070;52.236;-0.892;2024-03-08T00:22:56;100669.39;;;5.97;98.42
62928;BME280;51070;52.236;-0.892;2024-03-08T00:25:23;100666.52;;;5.98;98.61
62928;BME280;51070;52.236;-0.892;2024-03-08T00:27:48;100659.03;;;6.00;98.69
62928;BME280;51070;52.236;-0.892;2024-03-08T00:30:20;100659.10;;;6.01;98.80
62928;BME280;51070;52.236;-0.892;2024-03-08T00:32:48;100657.79;;;6.02;98.89
62928;BME280;51070;52.236;-0.892;2024-03-08T00:35:14;100655.90;;;6.02;98.98
62928;BME280;51070;52.236;-0.892;2024-03-08T00:37:39;100653.40;;;6.03;99.32
62928;BME280;51070;52.236;-0.892;2024-03-08T00:40:05;100655.11;;;6.03;99.33
62928;BME280;51070;52.236;-0.892;2024-03-08T00:42:32;100654.98;;;6.05;99.67
62928;BME280;51070;52.236;-0.892;2024-03-08T00:44:58;100648.22;;;6.07;99.71
62928;BME280;51070;52.236;-0.892;2024-03-08T00:47:23;100648.34;;;6.09;99.82
62928;BME280;51070;52.236;-0.892;2024-03-08T00:49:49;100638.60;;;6.09;99.53
62928;BME280;51070;52.236;-0.892;2024-03-08T00:52:14;100635.46;;;6.12;99.83
62928;BME280;51070;52.236;-0.892;2024-03-08T00:54:39;100633.65;;;6.13;99.64
62928;BME280;51070;52.236;-0.892;2024-03-08T00:57:05;100626.71;;;6.12;99.94
62928;BME280;51070;52.236;-0.892;2024-03-08T00:59:31;100625.75;;;6.10;99.99
62928;BME280;51070;52.236;-0.892;2024-03-08T01:01:58;100624.86;;;6.09;100.00
62928;BME280;51070;52.236;-0.892;2024-03-08T01:04:24;100624.85;;;6.09;100.00
62928;BME280;51070;52.236;-0.892;2024-03-08T01:06:51;100615.49;;;6.07;100.00
62928;BME280;51070;52.236;-0.892;2024-03-08T01:09:16;100610.41;;;6.05;100.00
62928;BME280;51070;52.236;-0.892;2024-03-08T01:11:42;100607.30;;;6.04;100.00
62928;BME280;51070;52.236;-0.892;2024-03-08T01:14:08;100607.13;;;6.04;100.00
62928;BME280;51070;52.236;-0.892;2024-03-08T01:16:33;100600.19;;;6.03;100.00
62928;BME280;51070;52.236;-0.892;2024-03-08T01:18:58;100593.95;;;6.02;100.00
62928;BME280;51070;52.236;-0.892;2024-03-08T01:21:24;100590.79;;;6.01;100.00
62928;BME280;51070;52.236;-0.892;2024-03-08T01:23:49;100585.46;;;6.00;100.00
62928;BME280;51070;52.236;-0.892;2024-03-08T01:26:14;100577.02;;;5.99;100.00
62928;BME280;51070;52.236;-0.892;2024-03-08T01:28:40;100578.95;;;5.97;100.00
62928;BME280;51070;52.236;-0.892;2024-03-08T01:31:05;100571.75;;;5.97;100.00
62928;BME280;51070;52.236;-0.892;2024-03-08T01:33:31;100565.81;;;5.98;100.00
62928;BME280;51070;52.236;-0.892;2024-03-08T01:35:56;100566.14;;;5.98;100.00
62928;BME280;51070;52.236;-0.892;2024-03-08T01:38:22;100559.98;;;5.98;100.00
62928;BME280;51070;52.236;-0.892;2024-03-08T01:40:48;100560.63;;;5.97;100.00
62928;BME280;51070;52.236;-0.892;2024-03-08T01:45:41;100558.13;;;5.95;100.00
62928;BME280;51070;52.236;-0.892;2024-03-08T01:48:07;100559.00;;;5.96;100.00
62928;BME280;51070;52.236;-0.892;2024-03-08T01:50:32;100555.73;;;5.96;100.00
62928;BME280;51070;52.236;-0.892;2024-03-08T01:52:57;100553.51;;;5.95;100.00
62928;BME280;51070;52.236;-0.892;2024-03-08T01:55:25;100551.77;;;5.95;100.00
62928;BME280;51070;52.236;-0.892;2024-03-08T01:57:50;100544.36;;;5.95;100.00
62928;BME280;51070;52.236;-0.892;2024-03-08T02:00:16;100545.05;;;5.95;100.00
62928;BME280;51070;52.236;-0.892;2024-03-08T02:02:42;100540.15;;;5.96;100.00
62928;BME280;51070;52.236;-0.892;2024-03-08T02:05:09;100539.30;;;5.96;100.00
62928;BME280;51070;52.236;-0.892;2024-03-08T02:07:34;100536.73;;;5.96;100.00
62928;BME280;51070;52.236;-0.892;2024-03-08T02:10:00;100531.97;;;5.97;100.00
62928;BME280;51070;52.236;-0.892;2024-03-08T02:12:25;100528.81;;;5.96;100.00
62928;BME280;51070;52.236;-0.892;2024-03-08T02:14:51;100528.77;;;5.95;100.00
62928;BME280;51070;52.236;-0.892;2024-03-08T02:17:16;100523.59;;;5.94;100.00
62928;BME280;51070;52.236;-0.892;2024-03-08T02:19:41;100519.63;;;5.93;100.00
62928;BME280;51070;52.236;-0.892;2024-03-08T02:22:07;100514.77;;;5.92;100.00
62928;BME280;51070;52.236;-0.892;2024-03-08T02:24:32;100513.09;;;5.93;100.00
62928;BME280;51070;52.236;-0.892;2024-03-08T02:26:58;100515.52;;;5.94;100.00
62928;BME280;51070;52.236;-0.892;2024-03-08T02:29:24;100511.03;;;5.93;100.00
62928;BME280;51070;52.236;-0.892;2024-03-08T02:31:50;100505.84;;;5.92;100.00
62928;BME280;51070;52.236;-0.892;2024-03-08T02:34:16;100499.09;;;5.90;100.00
62928;BME280;51070;52.236;-0.892;2024-03-08T02:36:41;100494.23;;;5.90;100.00
62928;BME280;51070;52.236;-0.892;2024-03-08T02:39:06;100486.67;;;5.89;100.00
62928;BME280;51070;52.236;-0.892;2024-03-08T02:41:33;100483.89;;;5.88;100.00
62928;BME280;51070;52.236;-0.892;2024-03-08T02:43:58;100479.76;;;5.88;100.00
62928;BME280;51070;52.236;-0.892;2024-03-08T02:46:25;100477.95;;;5.90;100.00
62928;BME280;51070;52.236;-0.892;2024-03-08T02:48:50;100471.97;;;5.90;100.00
62928;BME280;51070;52.236;-0.892;2024-03-08T02:51:16;100466.23;;;5.89;100.00
62928;BME280;51070;52.236;-0.892;2024-03-08T02:53:41;100460.52;;;5.87;100.00
62928;BME280;51070;52.236;-0.892;2024-03-08T02:56:08;100459.09;;;5.86;100.00
62928;BME280;51070;52.236;-0.892;2024-03-08T02:58:34;100454.26;;;5.86;100.00
62928;BME280;51070;52.236;-0.892;2024-03-08T03:00:59;100448.46;;;5.87;100.00
62928;BME280;51070;52.236;-0.892;2024-03-08T03:03:24;100445.16;;;5.86;100.00
62928;BME280;51070;52.236;-0.892;2024-03-08T03:05:51;100444.82;;;5.86;100.00
62928;BME280;51070;52.236;-0.892;2024-03-08T03:08:17;100441.20;;;5.86;100.00
62928;BME280;51070;52.236;-0.892;2024-03-08T03:10:42;100434.04;;;5.86;100.00
62928;BME280;51070;52.236;-0.892;2024-03-08T03:13:08;100429.71;;;5.86;100.00
62928;BME280;51070;52.236;-0.892;2024-03-08T03:15:33;100433.41;;;5.87;100.00
62928;BME280;51070;52.236;-0.892;2024-03-08T03:17:59;100426.08;;;5.88;100.00
62928;BME280;51070;52.236;-0.892;2024-03-08T03:20:25;100420.61;;;5.88;100.00
62928;BME280;51070;52.236;-0.892;2024-03-08T03:23:09;100420.98;;;5.89;100.00
62928;BME280;51070;52.236;-0.892;2024-03-08T03:25:34;100418.43;;;5.90;100.00
62928;BME280;51070;52.236;-0.892;2024-03-08T03:28:00;100413.99;;;5.90;100.00
62928;BME280;51070;52.236;-0.892;2024-03-08T03:30:26;100411.07;;;5.90;100.00
62928;BME280;51070;52.236;-0.892;2024-03-08T03:32:51;100407.11;;;5.90;100.00
62928;BME280;51070;52.236;-0.892;2024-03-08T03:35:17;100405.92;;;5.90;100.00
62928;BME280;51070;52.236;-0.892;2024-03-08T03:37:43;100410.38;;;5.90;100.00
62928;BME280;51070;52.236;-0.892;2024-03-08T03:40:16;100405.95;;;5.90;100.00
62928;BME280;51070;52.236;-0.892;2024-03-08T03:42:43;100402.20;;;5.91;100.00
62928;BME280;51070;52.236;-0.892;2024-03-08T03:45:10;100404.09;;;5.91;100.00
62928;BME280;51070;52.236;-0.892;2024-03-08T03:47:36;100401.73;;;5.92;100.00
62928;BME280;51070;52.236;-0.892;2024-03-08T03:50:03;100397.33;;;5.93;100.00
62928;BME280;51070;52.236;-0.892;2024-03-08T03:52:29;100396.31;;;5.94;100.00
62928;BME280;51070;52.236;-0.892;2024-03-08T03:54:54;100394.49;;;5.95;100.00
62928;BME280;51070;52.236;-0.892;2024-03-08T03:57:19;100387.84;;;5.96;100.00
62928;BME280;51070;52.236;-0.892;2024-03-08T03:59:48;100387.94;;;5.98;100.00
62928;BME280;51070;52.236;-0.892;2024-03-08T04:02:13;100386.39;;;5.98;100.00
62928;BME280;51070;52.236;-0.892;2024-03-08T04:04:38;100380.42;;;5.98;100.00
62928;BME280;51070;52.236;-0.892;2024-03-08T04:07:04;100377.38;;;5.99;100.00
62928;BME280;51070;52.236;-0.892;2024-03-08T04:09:30;100375.39;;;6.01;100.00
62928;BME280;51070;52.236;-0.892;2024-03-08T04:11:55;100371.98;;;6.02;100.00
62928;BME280;51070;52.236;-0.892;2024-03-08T04:14:22;100372.87;;;6.02;100.00
62928;BME280;51070;52.236;-0.892;2024-03-08T04:16:48;100369.83;;;6.03;100.00
62928;BME280;51070;52.236;-0.892;2024-03-08T04:19:13;100364.27;;;6.02;100.00
62928;BME280;51070;52.236;-0.892;2024-03-08T04:21:38;100366.98;;;6.01;100.00
62928;BME280;51070;52.236;-0.892;2024-03-08T04:24:04;100365.31;;;6.02;100.00
62928;BME280;51070;52.236;-0.892;2024-03-08T04:26:30;100362.04;;;6.02;100.00
62928;BME280;51070;52.236;-0.892;2024-03-08T04:28:56;100357.54;;;6.01;100.00
62928;BME280;51070;52.236;-0.892;2024-03-08T04:31:21;100360.79;;;6.01;100.00
62928;BME280;51070;52.236;-0.892;2024-03-08T04:33:47;100359.05;;;6.00;100.00
62928;BME280;51070;52.236;-0.892;2024-03-08T04:36:12;100353.89;;;6.00;100.00
62928;BME280;51070;52.236;-0.892;2024-03-08T04:38:39;100352.67;;;6.00;100.00
62928;BME280;51070;52.236;-0.892;2024-03-08T04:41:06;100353.86;;;6.00;100.00
62928;BME280;51070;52.236;-0.892;2024-03-08T04:43:31;100357.48;;;6.00;100.00
62928;BME280;51070;52.236;-0.892;2024-03-08T04:45:57;100351.30;;;5.99;100.00
62928;BME280;51070;52.236;-0.892;2024-03-08T04:48:22;100351.14;;;6.00;100.00
62928;BME280;51070;52.236;-0.892;2024-03-08T04:50:47;100352.35;;;6.00;100.00
62928;BME280;51070;52.236;-0.892;2024-03-08T04:53:13;100352.67;;;5.99;100.00
62928;BME280;51070;52.236;-0.892;2024-03-08T04:55:38;100349.39;;;5.99;100.00
62928;BME280;51070;52.236;-0.892;2024-03-08T04:58:04;100348.27;;;5.97;100.00
62928;BME280;51070;52.236;-0.892;2024-03-08T05:00:31;100349.33;;;5.98;100.00
62928;BME280;51070;52.236;-0.892;2024-03-08T05:02:56;100347.50;;;5.99;100.00
62928;BME280;51070;52.236;-0.892;2024-03-08T05:05:21;100346.01;;;6.00;100.00
62928;BME280;51070;52.236;-0.892;2024-03-08T05:07:48;100349.80;;;6.01;100.00
62928;BME280;51070;52.236;-0.892;2024-03-08T05:10:13;100346.70;;;6.00;100.00
62928;BME280;51070;52.236;-0.892;2024-03-08T05:12:43;100349.06;;;5.99;100.00
62928;BME280;51070;52.236;-0.892;2024-03-08T05:15:08;100343.08;;;6.00;100.00
62928;BME280;51070;52.236;-0.892;2024-03-08T05:17:33;100347.38;;;6.00;100.00
62928;BME280;51070;52.236;-0.892;2024-03-08T05:19:59;100347.76;;;6.01;100.00
62928;BME280;51070;52.236;-0.892;2024-03-08T05:22:24;100343.70;;;6.02;100.00
62928;BME280;51070;52.236;-0.892;2024-03-08T05:24:51;100338.02;;;6.02;100.00
62928;BME280;51070;52.236;-0.892;2024-03-08T05:27:16;100334.34;;;6.00;100.00
62928;BME280;51070;52.236;-0.892;2024-03-08T05:29:41;100332.23;;;5.99;100.00
62928;BME280;51070;52.236;-0.892;2024-03-08T05:32:07;100327.21;;;5.98;100.00
62928;BME280;51070;52.236;-0.892;2024-03-08T05:34:32;100324.39;;;5.96;100.00
62928;BME280;51070;52.236;-0.892;2024-03-08T05:36:57;100317.51;;;5.96;100.00
62928;BME280;51070;52.236;-0.892;2024-03-08T05:39:23;100317.38;;;5.97;100.00
62928;BME280;51070;52.236;-0.892;2024-03-08T05:41:49;100314.23;;;5.96;100.00
62928;BME280;51070;52.236;-0.892;2024-03-08T05:44:16;100313.30;;;5.94;100.00
62928;BME280;51070;52.236;-0.892;2024-03-08T05:46:44;100313.81;;;5.94;100.00
62928;BME280;51070;52.236;-0.892;2024-03-08T05:49:09;100310.54;;;5.93;100.00
62928;BME280;51070;52.236;-0.892;2024-03-08T05:51:39;100306.73;;;5.93;100.00
62928;BME280;51070;52.236;-0.892;2024-03-08T05:54:09;100302.98;;;5.93;100.00
62928;BME280;51070;52.236;-0.892;2024-03-08T05:56:38;100299.52;;;5.92;100.00
62928;BME280;51070;52.236;-0.892;2024-03-08T05:59:03;100291.78;;;5.92;100.00
62928;BME280;51070;52.236;-0.892;2024-03-08T06:01:29;100290.05;;;5.91;100.00
62928;BME280;51070;52.236;-0.892;2024-03-08T06:03:54;100289.85;;;5.91;100.00
62928;BME280;51070;52.236;-0.892;2024-03-08T06:06:24;100286.12;;;5.92;100.00
62928;BME280;51070;52.236;-0.892;2024-03-08T06:08:50;100285.48;;;5.93;100.00
62928;BME280;51070;52.236;-0.892;2024-03-08T06:11:15;100279.13;;;5.92;100.00
62928;BME280;51070;52.236;-0.892;2024-03-08T06:13:42;100274.67;;;5.93;100.00
62928;BME280;51070;52.236;-0.892;2024-03-08T06:16:08;100276.39;;;5.93;99.94
62928;BME280;51070;52.236;-0.892;2024-03-08T06:18:33;100274.15;;;5.92;99.76
62928;BME280;51070;52.236;-0.892;2024-03-08T06:21:01;100267.09;;;5.92;99.64
62928;BME280;51070;52.236;-0.892;2024-03-08T06:23:27;100265.86;;;5.91;99.64
62928;BME280;51070;52.236;-0.892;2024-03-08T06:25:52;100259.66;;;5.91;99.50
62928;BME280;51070;52.236;-0.892;2024-03-08T06:28:18;100256.38;;;5.90;99.51
62928;BME280;51070;52.236;-0.892;2024-03-08T06:30:43;100252.13;;;5.91;99.53
62928;BME280;51070;52.236;-0.892;2024-03-08T06:33:08;100247.01;;;5.91;99.05
62928;BME280;51070;52.236;-0.892;2024-03-08T06:35:34;100247.15;;;5.91;98.87
62928;BME280;51070;52.236;-0.892;2024-03-08T06:38:03;100246.96;;;5.90;98.58
62928;BME280;51070;52.236;-0.892;2024-03-08T06:40:28;100242.20;;;5.91;98.74
62928;BME280;51070;52.236;-0.892;2024-03-08T06:42:53;100243.93;;;5.92;98.22
62928;BME280;51070;52.236;-0.892;2024-03-08T06:45:19;100239.32;;;5.92;98.01
62928;BME280;51070;52.236;-0.892;2024-03-08T06:47:46;100235.42;;;5.93;97.61
62928;BME280;51070;52.236;-0.892;2024-03-08T06:50:11;100230.95;;;5.93;97.39
62928;BME280;51070;52.236;-0.892;2024-03-08T06:52:37;100232.00;;;5.93;97.32
62928;BME280;51070;52.236;-0.892;2024-03-08T06:55:04;100231.83;;;5.93;97.05
62928;BME280;51070;52.236;-0.892;2024-03-08T06:57:30;100233.30;;;5.92;96.55
62928;BME280;51070;52.236;-0.892;2024-03-08T06:59:56;100228.04;;;5.93;96.24
62928;BME280;51070;52.236;-0.892;2024-03-08T07:02:22;100228.94;;;5.94;96.25
62928;BME280;51070;52.236;-0.892;2024-03-08T07:04:50;100231.17;;;5.94;96.21
62928;BME280;51070;52.236;-0.892;2024-03-08T07:07:15;100228.61;;;5.95;96.51
62928;BME280;51070;52.236;-0.892;2024-03-08T07:09:41;100230.84;;;5.95;96.68
62928;BME280;51070;52.236;-0.892;2024-03-08T07:12:07;100230.27;;;5.93;96.61
62928;BME280;51070;52.236;-0.892;2024-03-08T07:14:33;100232.67;;;5.89;97.17
62928;BME280;51070;52.236;-0.892;2024-03-08T07:16:59;100232.63;;;5.85;97.48
62928;BME280;51070;52.236;-0.892;2024-03-08T07:19:24;100234.07;;;5.82;98.02
62928;BME280;51070;52.236;-0.892;2024-03-08T07:21:49;100232.09;;;5.80;98.74
62928;BME280;51070;52.236;-0.892;2024-03-08T07:24:14;100231.38;;;5.83;99.02
62928;BME280;51070;52.236;-0.892;2024-03-08T07:26:40;100231.07;;;5.87;99.36
62928;BME280;51070;52.236;-0.892;2024-03-08T07:29:05;100235.95;;;5.86;99.71
62928;BME280;51070;52.236;-0.892;2024-03-08T07:31:30;100231.27;;;5.89;99.82
62928;BME280;51070;52.236;-0.892;2024-03-08T07:34:02;100228.78;;;5.94;99.84
62928;BME280;51070;52.236;-0.892;2024-03-08T07:36:28;100220.75;;;6.03;99.83
62928;BME280;51070;52.236;-0.892;2024-03-08T07:38:54;100216.35;;;6.08;99.54
62928;BME280;51070;52.236;-0.892;2024-03-08T07:41:19;100213.85;;;6.18;99.35
62928;BME280;51070;52.236;-0.892;2024-03-08T07:43:45;100213.23;;;6.24;99.47
62928;BME280;51070;52.236;-0.892;2024-03-08T07:46:10;100218.16;;;6.27;99.21
62928;BME280;51070;52.236;-0.892;2024-03-08T07:48:36;100215.90;;;6.27;99.35
62928;BME280;51070;52.236;-0.892;2024-03-08T07:51:01;100205.43;;;6.26;99.48
62928;BME280;51070;52.236;-0.892;2024-03-08T07:53:28;100207.74;;;6.28;99.70
62928;BME280;51070;52.236;-0.892;2024-03-08T07:55:53;100207.21;;;6.28;99.78
62928;BME280;51070;52.236;-0.892;2024-03-08T07:58:19;100206.91;;;6.29;99.83
62928;BME280;51070;52.236;-0.892;2024-03-08T08:00:44;100203.42;;;6.32;99.85
62928;BME280;51070;52.236;-0.892;2024-03-08T08:03:09;100199.32;;;6.32;99.86
62928;BME280;51070;52.236;-0.892;2024-03-08T08:05:35;100199.23;;;6.34;99.89
62928;BME280;51070;52.236;-0.892;2024-03-08T08:08:02;100194.53;;;6.37;99.97
62928;BME280;51070;52.236;-0.892;2024-03-08T08:10:34;100193.00;;;6.38;99.30
62928;BME280;51070;52.236;-0.892;2024-03-08T08:13:00;100192.05;;;6.39;99.29
62928;BME280;51070;52.236;-0.892;2024-03-08T08:15:25;100192.49;;;6.41;99.01
62928;BME280;51070;52.236;-0.892;2024-03-08T08:17:50;100187.09;;;6.44;98.71
62928;BME280;51070;52.236;-0.892;2024-03-08T08:20:18;100186.27;;;6.49;98.59
62928;BME280;51070;52.236;-0.892;2024-03-08T08:22:44;100180.46;;;6.54;98.16
62928;BME280;51070;52.236;-0.892;2024-03-08T08:25:09;100177.21;;;6.58;97.56
62928;BME280;51070;52.236;-0.892;2024-03-08T08:27:38;100179.36;;;6.61;97.32
62928;BME280;51070;52.236;-0.892;2024-03-08T08:30:05;100177.95;;;6.60;96.97
62928;BME280;51070;52.236;-0.892;2024-03-08T08:32:33;100180.82;;;6.59;96.22
62928;BME280;51070;52.236;-0.892;2024-03-08T08:34:59;100173.10;;;6.55;96.72
62928;BME280;51070;52.236;-0.892;2024-03-08T08:37:24;100174.47;;;6.55;96.61
62928;BME280;51070;52.236;-0.892;2024-03-08T08:39:49;100165.86;;;6.54;96.58
62928;BME280;51070;52.236;-0.892;2024-03-08T08:42:16;100168.48;;;6.59;96.10
62928;BME280;51070;52.236;-0.892;2024-03-08T08:44:42;100165.38;;;6.63;95.29
62928;BME280;51070;52.236;-0.892;2024-03-08T08:47:08;100160.77;;;6.64;95.16
62928;BME280;51070;52.236;-0.892;2024-03-08T08:49:33;100157.11;;;6.67;94.58
62928;BME280;51070;52.236;-0.892;2024-03-08T08:51:59;100161.41;;;6.67;94.32
62928;BME280;51070;52.236;-0.892;2024-03-08T08:54:24;100165.39;;;6.68;94.06
62928;BME280;51070;52.236;-0.892;2024-03-08T08:56:50;100172.71;;;6.67;94.06
62928;BME280;51070;52.236;-0.892;2024-03-08T08:59:16;100164.48;;;6.67;94.27
62928;BME280;51070;52.236;-0.892;2024-03-08T09:01:44;100163.92;;;6.70;94.40
62928;BME280;51070;52.236;-0.892;2024-03-08T09:04:12;100163.91;;;6.79;93.84
62928;BME280;51070;52.236;-0.892;2024-03-08T09:06:37;100157.31;;;6.86;93.29
62928;BME280;51070;52.236;-0.892;2024-03-08T09:09:03;100157.41;;;6.97;92.83
62928;BME280;51070;52.236;-0.892;2024-03-08T09:11:30;100157.20;;;7.20;92.26
62928;BME280;51070;52.236;-0.892;2024-03-08T09:13:55;100156.16;;;7.24;91.76
62928;BME280;51070;52.236;-0.892;2024-03-08T09:16:20;100154.98;;;7.30;91.72
62928;BME280;51070;52.236;-0.892;2024-03-08T09:18:45;100149.84;;;7.40;91.21
62928;BME280;51070;52.236;-0.892;2024-03-08T09:21:11;100147.08;;;7.53;90.57
62928;BME280;51070;52.236;-0.892;2024-03-08T09:23:38;100147.27;;;7.64;89.21
62928;BME280;51070;52.236;-0.892;2024-03-08T09:26:03;100141.65;;;7.76;89.26
62928;BME280;51070;52.236;-0.892;2024-03-08T09:28:29;100137.59;;;7.83;88.53
62928;BME280;51070;52.236;-0.892;2024-03-08T09:30:54;100134.27;;;7.91;87.94
62928;BME280;51070;52.236;-0.892;2024-03-08T09:33:20;100128.52;;;7.94;86.99
62928;BME280;51070;52.236;-0.892;2024-03-08T09:35:46;100127.63;;;7.93;87.45
62928;BME280;51070;52.236;-0.892;2024-03-08T09:38:12;100124.46;;;7.96;87.04
62928;BME280;51070;52.236;-0.892;2024-03-08T09:40:38;100117.13;;;8.04;86.49
62928;BME280;51070;52.236;-0.892;2024-03-08T09:43:04;100119.84;;;8.08;86.01
62928;BME280;51070;52.236;-0.892;2024-03-08T09:45:29;100113.44;;;8.06;86.00
62928;BME280;51070;52.236;-0.892;2024-03-08T09:47:56;100117.18;;;8.00;85.81
62928;BME280;51070;52.236;-0.892;2024-03-08T09:50:22;100113.38;;;7.94;85.35
62928;BME280;51070;52.236;-0.892;2024-03-08T09:52:48;100107.51;;;7.88;85.46
62928;BME280;51070;52.236;-0.892;2024-03-08T09:55:14;100107.19;;;7.79;85.61
62928;BME280;51070;52.236;-0.892;2024-03-08T09:57:42;100099.53;;;7.71;85.88
62928;BME280;51070;52.236;-0.892;2024-03-08T10:00:28;100091.46;;;7.71;86.54
62928;BME280;51070;52.236;-0.892;2024-03-08T10:02:53;100089.92;;;7.82;86.43
62928;BME280;51070;52.236;-0.892;2024-03-08T10:05:19;100085.04;;;8.01;86.23
62928;BME280;51070;52.236;-0.892;2024-03-08T10:07:45;100086.11;;;8.13;85.21
62928;BME280;51070;52.236;-0.892;2024-03-08T10:10:10;100084.84;;;8.16;84.90
62928;BME280;51070;52.236;-0.892;2024-03-08T10:12:37;100085.42;;;8.18;84.49
62928;BME280;51070;52.236;-0.892;2024-03-08T10:15:05;100075.21;;;8.11;83.68
62928;BME280;51070;52.236;-0.892;2024-03-08T10:17:30;100072.81;;;8.06;84.18
62928;BME280;51070;52.236;-0.892;2024-03-08T10:19:57;100071.13;;;8.07;84.34
62928;BME280;51070;52.236;-0.892;2024-03-08T10:22:25;100067.70;;;8.08;83.53
62928;BME280;51070;52.236;-0.892;2024-03-08T10:24:50;100063.87;;;8.06;83.52
62928;BME280;51070;52.236;-0.892;2024-03-08T10:27:16;100059.41;;;8.01;83.16
62928;BME280;51070;52.236;-0.892;2024-03-08T10:29:42;100060.54;;;7.99;83.28
62928;BME280;51070;52.236;-0.892;2024-03-08T10:32:09;100056.88;;;7.97;83.20
62928;BME280;51070;52.236;-0.892;2024-03-08T10:34:35;100053.88;;;8.01;83.18
62928;BME280;51070;52.236;-0.892;2024-03-08T10:37:03;100049.18;;;8.04;83.15
62928;BME280;51070;52.236;-0.892;2024-03-08T10:39:36;100045.25;;;8.16;83.21
62928;BME280;51070;52.236;-0.892;2024-03-08T10:42:05;100037.78;;;8.25;82.56
62928;BME280;51070;52.236;-0.892;2024-03-08T10:47:13;100035.64;;;8.17;82.05
62928;BME280;51070;52.236;-0.892;2024-03-08T10:52:18;100028.92;;;8.11;82.29
62928;BME280;51070;52.236;-0.892;2024-03-08T10:54:43;100027.52;;;8.22;82.14
62928;BME280;51070;52.236;-0.892;2024-03-08T10:57:10;100023.65;;;8.30;81.60
62928;BME280;51070;52.236;-0.892;2024-03-08T10:59:37;100019.00;;;8.40;81.33
62928;BME280;51070;52.236;-0.892;2024-03-08T11:02:04;100016.77;;;8.40;80.52
62928;BME280;51070;52.236;-0.892;2024-03-08T11:04:31;100006.79;;;8.47;80.62
62928;BME280;51070;52.236;-0.892;2024-03-08T11:07:01;99998.02;;;8.66;80.56
62928;BME280;51070;52.236;-0.892;2024-03-08T11:09:35;99993.25;;;8.80;80.22
62928;BME280;51070;52.236;-0.892;2024-03-08T11:14:49;99985.77;;;9.22;79.60
62928;BME280;51070;52.236;-0.892;2024-03-08T11:18:01;99977.19;;;9.50;78.58
62928;BME280;51070;52.236;-0.892;2024-03-08T11:20:03;99974.27;;;9.87;76.83
62928;BME280;51070;52.236;-0.892;2024-03-08T11:22:40;99975.03;;;10.05;75.73
62928;BME280;51070;52.236;-0.892;2024-03-08T11:25:08;99965.06;;;10.39;73.95
62928;BME280;51070;52.236;-0.892;2024-03-08T11:27:37;99958.38;;;10.58;73.23
62928;BME280;51070;52.236;-0.892;2024-03-08T11:30:03;99953.63;;;10.62;72.59
62928;BME280;51070;52.236;-0.892;2024-03-08T11:32:34;99944.79;;;10.61;72.32
62928;BME280;51070;52.236;-0.892;2024-03-08T11:35:00;99938.27;;;10.63;71.82
62928;BME280;51070;52.236;-0.892;2024-03-08T11:37:32;99933.09;;;10.81;71.44
62928;BME280;51070;52.236;-0.892;2024-03-08T11:39:59;99931.66;;;10.88;70.57
62928;BME280;51070;52.236;-0.892;2024-03-08T11:42:26;99931.86;;;10.71;69.41
62928;BME280;51070;52.236;-0.892;2024-03-08T11:44:52;99933.05;;;10.79;69.03
62928;BME280;51070;52.236;-0.892;2024-03-08T11:47:17;99923.46;;;10.84;68.68
62928;BME280;51070;52.236;-0.892;2024-03-08T11:49:42;99924.27;;;10.91;68.94
62928;BME280;51070;52.236;-0.892;2024-03-08T11:52:13;99924.02;;;11.06;68.54
62928;BME280;51070;52.236;-0.892;2024-03-08T11:54:39;99925.89;;;11.13;68.56
62928;BME280;51070;52.236;-0.892;2024-03-08T11:57:05;99925.89;;;11.04;68.82
62928;BME280;51070;52.236;-0.892;2024-03-08T11:59:31;99922.45;;;11.15;68.03
62928;BME280;51070;52.236;-0.892;2024-03-08T12:02:03;99916.67;;;11.30;66.87
62928;BME280;51070;52.236;-0.892;2024-03-08T12:04:29;99916.98;;;11.52;66.61
62928;BME280;51070;52.236;-0.892;2024-03-08T12:06:54;99908.13;;;11.48;65.89
62928;BME280;51070;52.236;-0.892;2024-03-08T12:09:19;99904.31;;;11.26;66.18
62928;BME280;51070;52.236;-0.892;2024-03-08T12:11:50;99902.59;;;11.27;66.20
62928;BME280;51070;52.236;-0.892;2024-03-08T12:14:16;99901.09;;;11.40;65.18
62928;BME280;51070;52.236;-0.892;2024-03-08T12:16:41;99895.86;;;11.17;65.55
62928;BME280;51070;52.236;-0.892;2024-03-08T12:19:07;99889.67;;;10.99;66.00
62928;BME280;51070;52.236;-0.892;2024-03-08T12:21:35;99883.94;;;10.88;66.59
62928;BME280;51070;52.236;-0.892;2024-03-08T12:26:28;99877.13;;;11.04;66.26
62928;BME280;51070;52.236;-0.892;2024-03-08T12:28:56;99869.84;;;11.23;66.28
62928;BME280;51070;52.236;-0.892;2024-03-08T12:31:39;99863.56;;;11.41;64.32
62928;BME280;51070;52.236;-0.892;2024-03-08T12:34:07;99863.73;;;11.42;64.03
62928;BME280;51070;52.236;-0.892;2024-03-08T12:36:35;99855.69;;;11.25;63.68
62928;BME280;51070;52.236;-0.892;2024-03-08T12:39:01;99853.64;;;11.05;64.05
62928;BME280;51070;52.236;-0.892;2024-03-08T12:41:29;99847.79;;;11.07;64.05
62928;BME280;51070;52.236;-0.892;2024-03-08T12:43:54;99842.43;;;11.28;63.79
62928;BME280;51070;52.236;-0.892;2024-03-08T12:46:21;99835.81;;;11.49;62.36
62928;BME280;51070;52.236;-0.892;2024-03-08T12:48:47;99825.98;;;11.64;61.70
62928;BME280;51070;52.236;-0.892;2024-03-08T12:51:16;99818.48;;;11.82;61.01
62928;BME280;51070;52.236;-0.892;2024-03-08T12:53:43;99818.45;;;11.69;61.29